Time;durP1;ratioP1;P1;durP2;ratioP2;P2;SDS_P1;SDS_P2;PMS_P1;PMS_P2;Temp;Humidity;BMP_temperature;BMP_pressure;BME280_temperature;BME280_humidity;BME280_pressure;Samples;Min_cycle;Max_cycle;Signal;HPM_P1;HPM_P2
2022/12/26 00:01:51;;;;;;;2.07;1.80;;;12.70;99.90;;;;;;7395916;19;21544;-75
2022/12/26 00:04:17;;;;;;;2.27;1.57;;;12.60;99.90;;;;;;7395731;19;20142;-74
2022/12/26 00:06:43;;;;;;;3.20;2.00;;;12.30;99.90;;;;;;7396033;19;20138;-74
2022/12/26 00:09:09;;;;;;;2.37;1.80;;;12.40;99.90;;;;;;7396680;19;20157;-74
2022/12/26 00:11:35;;;;;;;2.35;1.60;;;12.30;99.90;;;;;;7389203;19;20772;-75
2022/12/26 00:14:05;;;;;;;2.70;1.70;;;12.00;99.90;;;;;;7394068;19;20158;-75
2022/12/26 00:16:31;;;;;;;2.53;2.03;;;12.10;99.90;;;;;;7394140;19;20151;-75
2022/12/26 00:18:57;;;;;;;2.03;1.63;;;12.00;99.90;;;;;;7396065;19;20138;-74
2022/12/26 00:21:25;;;;;;;3.40;1.90;;;12.20;99.90;;;;;;7397118;19;20685;-73
2022/12/26 00:23:52;;;;;;;3.70;2.33;;;12.30;99.90;;;;;;7393634;19;20142;-74
2022/12/26 00:26:20;;;;;;;2.07;1.57;;;12.30;99.90;;;;;;7395115;19;20138;-74
2022/12/26 00:28:48;;;;;;;2.93;2.20;;;12.30;99.90;;;;;;7394303;19;20527;-74
2022/12/26 00:31:18;;;;;;;2.70;1.97;;;12.30;99.90;;;;;;7394959;19;20206;-74
2022/12/26 00:33:44;;;;;;;2.67;2.00;;;12.30;99.90;;;;;;7392389;19;20147;-75
2022/12/26 00:36:13;;;;;;;4.70;2.10;;;12.30;99.90;;;;;;7396544;19;20150;-74
2022/12/26 00:38:42;;;;;;;2.63;2.10;;;12.20;99.90;;;;;;7394394;19;20150;-74
2022/12/26 00:41:09;;;;;;;3.20;2.00;;;12.20;99.90;;;;;;7393926;19;20149;-74
2022/12/26 00:43:34;;;;;;;2.58;1.83;;;11.90;99.90;;;;;;7393939;19;20139;-74
2022/12/26 00:46:00;;;;;;;2.50;2.10;;;12.10;99.90;;;;;;7392217;19;20605;-74
2022/12/26 00:48:26;;;;;;;2.03;1.60;;;12.00;99.90;;;;;;7394034;19;20155;-75
2022/12/26 00:50:52;;;;;;;2.00;1.77;;;12.20;99.90;;;;;;7393707;19;20161;-73
2022/12/26 00:53:18;;;;;;;1.60;1.50;;;12.30;99.90;;;;;;7394940;19;20139;-74
2022/12/26 00:55:44;;;;;;;2.63;1.97;;;12.20;99.90;;;;;;7394780;19;20153;-74
2022/12/26 00:58:10;;;;;;;2.13;1.93;;;12.20;99.90;;;;;;7394070;19;20147;-73
2022/12/26 01:00:36;;;;;;;2.30;2.03;;;12.10;99.90;;;;;;7396852;19;20153;-75
2022/12/26 01:03:05;;;;;;;2.60;1.83;;;12.20;99.90;;;;;;7388129;19;20146;-75
2022/12/26 01:05:30;;;;;;;2.30;1.83;;;12.30;99.90;;;;;;7387472;19;20889;-74
2022/12/26 01:07:56;;;;;;;3.58;2.10;;;12.20;99.90;;;;;;7391590;19;20131;-74
2022/12/26 01:10:22;;;;;;;2.80;1.93;;;12.20;99.90;;;;;;7394294;19;20540;-74
2022/12/26 01:12:48;;;;;;;3.05;2.03;;;12.30;99.90;;;;;;7379517;19;20141;-74
2022/12/26 01:15:14;;;;;;;2.37;1.67;;;12.40;99.90;;;;;;7381824;19;20174;-76
2022/12/26 01:17:40;;;;;;;5.40;2.00;;;12.30;99.90;;;;;;7391632;19;20139;-73
2022/12/26 01:20:06;;;;;;;4.23;2.07;;;12.10;99.90;;;;;;7393646;19;20146;-73
2022/12/26 01:22:31;;;;;;;3.00;1.90;;;12.10;99.90;;;;;;7394467;19;20138;-73
2022/12/26 01:24:57;;;;;;;2.83;1.90;;;11.70;99.90;;;;;;7393249;19;20166;-73
2022/12/26 01:27:25;;;;;;;3.63;1.90;;;11.80;99.90;;;;;;7391542;19;20143;-73
2022/12/26 01:29:55;;;;;;;1.97;1.60;;;11.70;99.90;;;;;;7387108;19;20142;-74
2022/12/26 01:32:21;;;;;;;2.90;1.83;;;11.90;99.90;;;;;;7394147;19;20582;-73
2022/12/26 01:34:47;;;;;;;3.03;1.87;;;11.70;99.90;;;;;;7392114;19;20155;-74
2022/12/26 01:37:15;;;;;;;2.95;1.90;;;11.80;99.90;;;;;;7394844;19;20145;-74
2022/12/26 01:39:41;;;;;;;3.37;2.00;;;11.90;99.90;;;;;;7389206;19;20141;-74
2022/12/26 01:42:15;;;;;;;5.33;2.87;;;12.00;99.90;;;;;;7393820;19;20358;-74
2022/12/26 01:45:00;;;;;;;3.50;2.33;;;12.10;99.90;;;;;;7393959;19;20137;-74
2022/12/26 01:47:32;;;;;;;3.10;1.87;;;11.90;99.90;;;;;;7388922;19;20141;-75
2022/12/26 01:49:58;;;;;;;3.73;1.80;;;11.80;99.90;;;;;;7394428;19;20134;-74
2022/12/26 01:52:34;;;;;;;2.00;1.57;;;11.80;99.90;;;;;;7394941;19;20142;-75
2022/12/26 01:55:00;;;;;;;1.83;1.67;;;11.70;99.90;;;;;;7394283;19;20146;-74
2022/12/26 01:57:38;;;;;;;1.97;1.67;;;11.70;99.90;;;;;;7392906;19;20146;-75
2022/12/26 02:00:06;;;;;;;2.90;1.85;;;11.60;99.90;;;;;;7390862;19;20582;-74
2022/12/26 02:05:32;;;;;;;1.70;1.60;;;11.60;99.90;;;;;;7387810;19;20153;-73
2022/12/26 02:05:33;;;;;;;2.60;1.52;;;11.60;99.90;;;;;;7388207;19;20150;-73
2022/12/26 02:08:03;;;;;;;3.17;2.03;;;11.60;99.90;;;;;;7390691;19;20141;-74
2022/12/26 02:10:34;;;;;;;2.13;1.83;;;11.50;99.90;;;;;;7391940;19;20194;-74
2022/12/26 02:13:00;;;;;;;2.03;1.40;;;11.70;99.90;;;;;;7385364;19;20167;-74
2022/12/26 02:15:27;;;;;;;1.50;1.40;;;11.70;99.90;;;;;;7394369;19;20166;-73
2022/12/26 02:17:54;;;;;;;1.87;1.57;;;11.70;99.90;;;;;;7390983;19;20473;-74
2022/12/26 02:20:23;;;;;;;2.20;1.80;;;11.70;99.90;;;;;;7391901;19;20518;-73
2022/12/26 02:23:43;;;;;;;1.67;1.20;;;11.70;99.90;;;;;;7388640;19;20493;-74
2022/12/26 02:26:38;;;;;;;2.47;1.70;;;11.70;99.90;;;;;;7392743;19;20583;-75
2022/12/26 02:29:26;;;;;;;2.07;1.50;;;12.10;99.90;;;;;;7393195;19;20594;-75
2022/12/26 02:32:19;;;;;;;2.60;1.37;;;12.10;99.90;;;;;;7391748;19;20504;-74
2022/12/26 02:34:58;;;;;;;2.40;1.60;;;12.10;99.90;;;;;;7392516;19;20144;-74
2022/12/26 02:37:49;;;;;;;1.60;1.50;;;12.10;99.90;;;;;;7388381;19;20145;-74
2022/12/26 02:40:21;;;;;;;1.47;1.37;;;12.10;99.90;;;;;;7388187;19;20158;-75
2022/12/26 02:43:12;;;;;;;1.90;1.50;;;11.80;99.90;;;;;;7391142;19;20141;-74
2022/12/26 02:48:56;;;;;;;1.93;1.70;;;11.80;99.90;;;;;;7392754;19;20153;-74
2022/12/26 03:15:00;;;;;;;3.13;2.40;;;12.30;99.90;;;;;;7389631;19;20138;-73
2022/12/26 03:17:39;;;;;;;2.23;1.90;;;12.10;99.90;;;;;;7388139;19;20126;-74
2022/12/26 03:20:14;;;;;;;4.23;2.30;;;12.20;99.90;;;;;;7392557;19;20142;-74
2022/12/26 03:23:08;;;;;;;2.80;2.23;;;12.10;99.90;;;;;;7391675;19;20229;-74
2022/12/26 03:28:40;;;;;;;4.83;2.20;;;11.80;99.90;;;;;;7389299;19;20477;-73
2022/12/26 03:31:09;;;;;;;2.07;1.70;;;11.90;99.90;;;;;;7391250;19;20135;-73
2022/12/26 03:36:52;;;;;;;2.00;1.80;;;11.90;99.90;;;;;;7395079;19;20694;-74
2022/12/26 03:39:18;;;;;;;2.17;1.60;;;11.90;99.90;;;;;;7397550;19;20592;-74
2022/12/26 04:20:33;;;;;;;2.90;1.60;;;12.10;99.90;;;;;;7393729;19;20150;-74
2022/12/26 04:46:29;;;;;;;1.77;1.43;;;12.10;99.90;;;;;;7390114;19;20130;-73
2022/12/26 04:51:41;;;;;;;1.30;1.20;;;12.30;99.90;;;;;;7394516;19;20138;-74
2022/12/26 04:54:07;;;;;;;1.87;1.47;;;12.30;99.90;;;;;;7393210;19;20135;-74
2022/12/26 04:56:33;;;;;;;2.05;1.40;;;12.40;99.90;;;;;;7394838;19;20471;-74
2022/12/26 04:58:59;;;;;;;1.67;1.20;;;12.50;99.90;;;;;;7392928;19;20138;-74
2022/12/26 05:09:47;;;;;;;1.47;1.37;;;12.40;99.90;;;;;;7389237;19;20127;-74
2022/12/26 05:12:13;;;;;;;2.17;1.60;;;12.40;99.90;;;;;;7393949;19;20138;-75
2022/12/26 05:14:39;;;;;;;1.90;1.45;;;12.50;99.90;;;;;;7392967;19;20141;-74
2022/12/26 05:31:03;;;;;;;3.20;1.40;;;12.30;99.90;;;;;;7393239;19;20146;-74
2022/12/26 05:36:15;;;;;;;1.27;1.13;;;12.30;99.90;;;;;;7394909;19;20134;-74
2022/12/26 05:38:40;;;;;;;1.70;1.27;;;12.30;99.90;;;;;;7392113;19;20135;-75
2022/12/26 05:41:06;;;;;;;1.50;1.30;;;12.40;99.90;;;;;;7392766;19;20178;-72
2022/12/26 05:43:32;;;;;;;1.85;1.52;;;12.40;99.90;;;;;;7393248;19;20139;-75
2022/12/26 05:45:58;;;;;;;2.67;1.35;;;12.40;99.90;;;;;;7392427;19;20136;-73
2022/12/26 05:48:23;;;;;;;1.20;1.10;;;12.50;99.90;;;;;;7393732;19;20206;-74
2022/12/26 05:50:49;;;;;;;3.65;1.80;;;12.40;99.90;;;;;;7393018;19;20485;-75
2022/12/26 05:53:15;;;;;;;1.33;1.23;;;12.50;99.90;;;;;;7390955;19;20142;-75
2022/12/26 05:55:40;;;;;;;1.40;1.20;;;12.50;99.90;;;;;;7393029;19;20609;-75
2022/12/26 05:58:06;;;;;;;1.95;1.50;;;12.60;99.90;;;;;;7392099;19;20589;-75
2022/12/26 06:00:32;;;;;;;1.50;1.38;;;12.60;99.90;;;;;;7391599;19;20158;-74
2022/12/26 06:02:59;;;;;;;2.47;1.60;;;12.70;99.90;;;;;;7389890;19;20590;-74
2022/12/26 06:05:25;;;;;;;1.83;1.43;;;12.60;99.90;;;;;;7390454;19;20146;-75
2022/12/26 06:07:51;;;;;;;2.67;1.50;;;12.80;99.90;;;;;;7388928;19;20162;-75
2022/12/26 06:10:17;;;;;;;1.98;1.50;;;12.60;99.90;;;;;;7393826;19;20172;-73
2022/12/26 06:12:42;;;;;;;2.80;1.48;;;12.60;99.90;;;;;;7390954;19;20167;-75
2022/12/26 06:15:09;;;;;;;1.50;1.23;;;12.60;99.90;;;;;;7391784;19;20153;-73
2022/12/26 06:17:35;;;;;;;1.98;1.30;;;12.60;99.90;;;;;;7393010;19;20673;-73
2022/12/26 06:20:00;;;;;;;1.92;1.33;;;12.60;99.90;;;;;;7391143;19;20167;-75
2022/12/26 06:22:28;;;;;;;3.00;1.50;;;12.60;99.90;;;;;;7393863;19;20570;-75
2022/12/26 06:24:54;;;;;;;2.40;1.45;;;12.60;99.90;;;;;;7390385;19;20486;-74
2022/12/26 06:27:20;;;;;;;1.73;1.50;;;12.60;99.90;;;;;;7390911;19;20137;-75
2022/12/26 06:29:45;;;;;;;2.05;1.67;;;12.70;99.90;;;;;;7390858;19;20150;-75
2022/12/26 06:32:11;;;;;;;3.07;1.63;;;12.70;99.90;;;;;;7391041;19;20206;-74
2022/12/26 06:34:37;;;;;;;3.55;1.30;;;12.60;99.90;;;;;;7387040;19;20424;-74
2022/12/26 06:37:02;;;;;;;1.83;1.50;;;12.50;99.90;;;;;;7392575;19;20163;-74
2022/12/26 06:39:28;;;;;;;1.77;1.40;;;12.40;99.90;;;;;;7392138;19;20143;-74
2022/12/26 06:41:54;;;;;;;1.20;1.10;;;12.40;99.90;;;;;;7390696;19;20135;-74
2022/12/26 06:44:20;;;;;;;2.30;1.40;;;12.40;99.90;;;;;;7390154;19;20145;-74
2022/12/26 06:46:45;;;;;;;2.85;1.60;;;12.40;99.90;;;;;;7392323;19;20206;-74
2022/12/26 06:49:11;;;;;;;1.58;1.33;;;12.50;99.90;;;;;;7390245;19;20161;-73
2022/12/26 06:51:37;;;;;;;2.78;1.38;;;12.50;99.90;;;;;;7392740;19;20614;-74
2022/12/26 06:54:03;;;;;;;3.05;1.30;;;12.60;99.90;;;;;;7389509;19;20142;-75
2022/12/26 06:56:30;;;;;;;2.58;1.48;;;12.50;99.90;;;;;;7390353;19;20166;-74
2022/12/26 06:59:03;;;;;;;1.60;1.10;;;12.50;99.90;;;;;;7391471;19;20131;-74
2022/12/26 07:01:32;;;;;;;1.60;1.17;;;12.40;99.90;;;;;;7391608;19;20134;-73
2022/12/26 07:03:59;;;;;;;1.67;1.30;;;12.40;99.90;;;;;;7388157;19;20189;-74
2022/12/26 07:06:29;;;;;;;1.38;1.27;;;12.40;99.90;;;;;;7389100;19;20139;-74
2022/12/26 07:09:04;;;;;;;2.03;1.30;;;12.50;99.90;;;;;;7390976;19;20134;-73
2022/12/26 07:11:34;;;;;;;1.45;1.17;;;12.60;99.90;;;;;;7392014;19;20166;-75
2022/12/26 07:14:00;;;;;;;2.40;1.20;;;12.70;99.90;;;;;;7391390;19;20141;-74
2022/12/26 07:16:27;;;;;;;1.90;1.33;;;12.70;99.90;;;;;;7386349;19;20504;-75
2022/12/26 07:18:57;;;;;;;2.30;1.40;;;12.70;99.90;;;;;;7392631;19;20178;-74
2022/12/26 07:21:24;;;;;;;1.70;1.40;;;12.70;99.90;;;;;;7390961;19;20590;-74
2022/12/26 07:23:52;;;;;;;1.40;1.30;;;12.70;99.90;;;;;;7390309;19;20583;-74
2022/12/26 07:26:18;;;;;;;1.88;1.45;;;12.70;99.90;;;;;;7388587;19;20146;-74
2022/12/26 07:28:43;;;;;;;1.80;1.40;;;12.50;99.90;;;;;;7388473;19;20614;-73
2022/12/26 07:31:17;;;;;;;2.35;1.70;;;12.50;99.90;;;;;;7388773;19;20154;-74
2022/12/26 07:33:50;;;;;;;2.58;1.50;;;12.50;99.90;;;;;;7387350;19;20857;-73
2022/12/26 07:36:16;;;;;;;2.35;1.70;;;12.70;99.90;;;;;;7389666;19;20158;-73
2022/12/26 07:38:42;;;;;;;5.37;2.67;;;12.90;99.90;;;;;;7389584;19;20587;-74
2022/12/26 07:43:52;;;;;;;5.67;3.87;;;12.80;99.90;;;;;;7389332;19;20153;-74
2022/12/26 07:46:18;;;;;;;6.75;4.32;;;12.90;99.90;;;;;;7389656;19;20131;-74
2022/12/26 07:48:44;;;;;;;5.95;3.65;;;12.80;99.90;;;;;;7386983;19;20135;-75
2022/12/26 07:51:11;;;;;;;5.97;3.83;;;12.90;99.90;;;;;;7386853;19;20155;-74
2022/12/26 07:53:37;;;;;;;5.90;4.00;;;12.70;99.90;;;;;;7385941;19;20146;-74
2022/12/26 07:56:03;;;;;;;11.03;4.87;;;12.80;99.90;;;;;;7386587;19;20135;-74
2022/12/26 07:58:30;;;;;;;4.60;3.50;;;12.80;99.90;;;;;;7387559;19;20153;-74
2022/12/26 08:01:00;;;;;;;6.30;4.20;;;12.70;99.90;;;;;;7386358;19;20651;-74
2022/12/26 08:03:26;;;;;;;5.03;3.40;;;12.80;99.90;;;;;;7389550;19;20146;-74
2022/12/26 08:05:52;;;;;;;5.68;2.97;;;12.80;99.90;;;;;;7389554;19;20134;-75
2022/12/26 08:08:18;;;;;;;3.67;2.80;;;12.80;99.90;;;;;;7385901;19;20123;-73
2022/12/26 08:10:43;;;;;;;4.77;2.40;;;12.80;99.90;;;;;;7387197;19;20134;-78
2022/12/26 08:13:09;;;;;;;4.93;2.60;;;12.70;99.90;;;;;;7387476;19;20154;-77
2022/12/26 08:15:38;;;;;;;5.85;2.97;;;12.70;99.90;;;;;;7387375;19;20123;-78
2022/12/26 08:18:04;;;;;;;2.70;2.37;;;12.70;99.90;;;;;;7387828;19;20138;-78
2022/12/26 08:20:30;;;;;;;5.25;2.60;;;12.60;99.90;;;;;;7381853;19;20134;-78
2022/12/26 08:22:56;;;;;;;3.70;2.30;;;12.50;99.90;;;;;;7391978;19;20250;-77
2022/12/26 08:25:22;;;;;;;3.90;2.50;;;12.60;99.90;;;;;;7395101;19;20767;-79
2022/12/26 08:27:47;;;;;;;4.20;2.67;;;12.60;99.90;;;;;;7392241;19;20130;-77
2022/12/26 08:30:13;;;;;;;3.40;2.20;;;12.50;99.90;;;;;;7385942;19;20146;-75
2022/12/26 08:32:39;;;;;;;4.50;2.30;;;12.50;99.90;;;;;;7393310;19;20134;-77
2022/12/26 08:35:05;;;;;;;2.00;1.80;;;12.50;99.90;;;;;;7392856;19;20582;-77
2022/12/26 08:37:32;;;;;;;6.13;2.70;;;12.40;99.90;;;;;;7393706;19;20135;-76
2022/12/26 08:39:58;;;;;;;3.67;2.05;;;12.60;99.90;;;;;;7395170;19;20145;-76
2022/12/26 08:42:23;;;;;;;4.03;2.30;;;12.60;99.90;;;;;;7395794;19;20603;-76
2022/12/26 08:44:49;;;;;;;2.93;2.17;;;12.60;99.90;;;;;;7395915;19;20597;-75
2022/12/26 08:47:15;;;;;;;2.67;2.10;;;12.60;99.90;;;;;;7390070;19;20709;-76
2022/12/26 08:49:41;;;;;;;3.07;1.97;;;12.60;99.90;;;;;;7391174;19;20575;-76
2022/12/26 08:52:07;;;;;;;2.57;2.00;;;12.60;99.90;;;;;;7390595;19;20134;-75
2022/12/26 08:54:33;;;;;;;2.93;2.23;;;12.60;99.90;;;;;;7396363;19;20154;-77
2022/12/26 08:56:59;;;;;;;3.13;2.30;;;12.70;99.90;;;;;;7394133;19;20134;-78
2022/12/26 08:59:24;;;;;;;3.45;2.20;;;12.70;99.90;;;;;;7393027;19;20149;-77
2022/12/26 09:01:50;;;;;;;2.80;2.20;;;12.50;99.90;;;;;;7387216;19;20134;-77
2022/12/26 09:04:16;;;;;;;2.13;1.87;;;12.60;99.90;;;;;;7385173;19;20186;-78
2022/12/26 09:06:42;;;;;;;3.77;1.97;;;12.50;99.90;;;;;;7389819;19;20130;-77
2022/12/26 09:09:10;;;;;;;2.40;1.77;;;12.40;99.90;;;;;;7389159;19;20158;-78
2022/12/26 09:11:37;;;;;;;2.08;1.55;;;12.60;99.90;;;;;;7376568;19;20210;-77
2022/12/26 09:14:04;;;;;;;2.50;1.70;;;12.60;99.90;;;;;;7384289;19;20142;-77
2022/12/26 09:16:34;;;;;;;1.77;1.50;;;12.70;99.90;;;;;;7390436;19;20800;-78
2022/12/26 09:19:02;;;;;;;2.75;1.90;;;12.70;99.90;;;;;;7388922;19;20467;-78
2022/12/26 09:21:30;;;;;;;2.80;1.95;;;12.60;99.90;;;;;;7386739;19;20150;-78
2022/12/26 09:24:01;;;;;;;3.27;1.87;;;12.60;99.90;;;;;;7386807;19;20156;-78
2022/12/26 09:26:28;;;;;;;3.63;2.10;;;12.60;99.90;;;;;;7389984;19;20579;-77
2022/12/26 09:28:54;;;;;;;2.28;1.70;;;12.50;99.90;;;;;;7389338;19;20127;-76
2022/12/26 09:31:25;;;;;;;2.20;1.70;;;12.60;99.90;;;;;;7389507;19;20452;-78
2022/12/26 09:33:54;;;;;;;2.10;1.90;;;12.70;99.90;;;;;;7385555;19;20138;-77
2022/12/26 09:36:26;;;;;;;3.60;2.13;;;12.60;99.90;;;;;;7395467;19;20127;-78
2022/12/26 09:38:54;;;;;;;3.15;2.30;;;12.30;99.90;;;;;;7388448;19;20142;-77
2022/12/26 09:41:51;;;;;;;4.20;2.17;;;12.40;99.90;;;;;;7390260;19;20146;-78
2022/12/26 09:44:53;;;;;;;2.67;2.10;;;12.60;99.90;;;;;;7391128;19;20130;-78
2022/12/26 09:47:44;;;;;;;3.40;1.70;;;12.40;99.90;;;;;;7388106;19;20230;-77
2022/12/26 09:50:38;;;;;;;2.83;2.10;;;12.50;99.90;;;;;;7388452;19;20122;-79
2022/12/26 09:53:09;;;;;;;4.55;2.05;;;12.60;99.90;;;;;;7373846;19;20147;-78
2022/12/26 09:55:50;;;;;;;3.72;2.42;;;12.70;99.90;;;;;;7380372;19;20139;-77
2022/12/26 09:58:29;;;;;;;3.33;2.30;;;12.80;99.90;;;;;;7389891;19;20505;-78
2022/12/26 10:01:06;;;;;;;4.60;2.20;;;12.80;99.90;;;;;;7389052;19;20146;-78
2022/12/26 10:03:43;;;;;;;3.30;2.13;;;12.60;99.90;;;;;;7387116;19;20154;-78
2022/12/26 10:06:14;;;;;;;4.60;3.40;;;12.50;99.90;;;;;;7386533;19;20189;-78
2022/12/26 10:08:49;;;;;;;5.03;2.77;;;12.40;99.90;;;;;;7389342;19;20693;-79
2022/12/26 10:11:23;;;;;;;4.03;2.77;;;12.30;99.90;;;;;;7389965;19;20160;-77
2022/12/26 10:13:58;;;;;;;4.07;2.20;;;12.20;99.90;;;;;;7391128;19;20122;-77
2022/12/26 10:17:10;;;;;;;5.73;2.50;;;12.20;99.90;;;;;;7391807;19;20152;-79
2022/12/26 10:20:06;;;;;;;3.17;2.30;;;12.10;99.90;;;;;;7382995;19;20554;-77
2022/12/26 10:23:10;;;;;;;4.20;2.47;;;11.90;99.90;;;;;;7386120;19;20139;-76
2022/12/26 10:25:52;;;;;;;4.53;2.70;;;12.00;99.90;;;;;;7389162;19;20422;-77
2022/12/26 10:28:31;;;;;;;2.93;2.27;;;12.10;99.90;;;;;;7389847;19;20138;-76
2022/12/26 10:31:01;;;;;;;3.13;2.30;;;12.10;99.90;;;;;;7392315;19;20130;-78
2022/12/26 10:33:43;;;;;;;2.60;1.80;;;12.10;99.90;;;;;;7392222;19;20242;-80
2022/12/26 10:36:27;;;;;;;3.57;2.10;;;12.10;99.90;;;;;;7388995;19;20589;-81
2022/12/26 10:38:58;;;;;;;3.03;1.80;;;12.00;99.90;;;;;;7394511;19;20150;-77
2022/12/26 10:41:36;;;;;;;2.80;1.93;;;12.10;99.90;;;;;;7388795;19;20166;-77
2022/12/26 10:44:02;;;;;;;4.30;2.00;;;12.20;99.90;;;;;;7388057;19;20152;-78
2022/12/26 10:46:38;;;;;;;5.10;1.90;;;12.20;99.90;;;;;;7384665;19;20528;-77
2022/12/26 10:49:06;;;;;;;2.80;2.03;;;12.10;99.90;;;;;;7387303;19;20153;-76
2022/12/26 10:51:32;;;;;;;1.73;1.60;;;12.00;99.90;;;;;;7385225;19;20141;-76
2022/12/26 10:53:58;;;;;;;3.20;1.60;;;11.90;99.90;;;;;;7383410;19;20158;-78
2022/12/26 10:56:24;;;;;;;3.43;2.27;;;12.00;99.90;;;;;;7390297;19;20475;-76
2022/12/26 10:59:02;;;;;;;4.20;2.20;;;12.10;99.90;;;;;;7388814;19;20151;-77
2022/12/26 11:01:29;;;;;;;3.53;2.00;;;12.20;99.90;;;;;;7389588;19;20217;-77
2022/12/26 11:03:58;;;;;;;3.57;1.80;;;12.30;99.90;;;;;;7387143;19;20680;-76
2022/12/26 11:06:29;;;;;;;3.27;2.10;;;12.30;99.90;;;;;;7388970;19;20627;-77
2022/12/26 11:08:55;;;;;;;2.77;1.87;;;12.30;99.90;;;;;;7388087;19;20250;-77
2022/12/26 11:11:44;;;;;;;1.97;1.60;;;12.40;99.90;;;;;;7386808;19;20690;-77
2022/12/26 11:14:24;;;;;;;3.27;2.13;;;12.30;99.90;;;;;;7388793;19;20488;-77
2022/12/26 11:16:50;;;;;;;4.70;2.70;;;12.10;99.90;;;;;;7388571;19;20147;-77
2022/12/26 11:19:31;;;;;;;5.17;3.03;;;12.10;99.90;;;;;;7389812;19;20143;-77
2022/12/26 11:22:23;;;;;;;3.70;2.37;;;12.20;99.90;;;;;;7388474;19;20155;-76
2022/12/26 11:25:08;;;;;;;2.73;2.00;;;12.40;99.90;;;;;;7389635;19;20463;-77
2022/12/26 11:27:34;;;;;;;3.50;2.00;;;12.40;99.90;;;;;;7388213;19;20232;-78
2022/12/26 11:30:18;;;;;;;2.80;2.17;;;12.40;99.90;;;;;;7388881;19;20508;-77
2022/12/26 11:32:48;;;;;;;3.03;1.73;;;12.40;99.90;;;;;;7387201;19;20135;-77
2022/12/26 11:35:22;;;;;;;2.50;1.97;;;12.40;99.90;;;;;;7389768;19;20440;-76
2022/12/26 11:37:57;;;;;;;2.00;1.50;;;12.40;99.90;;;;;;7388208;19;20675;-76
2022/12/26 11:40:31;;;;;;;2.37;1.43;;;12.50;99.90;;;;;;7389190;19;20156;-76
2022/12/26 11:43:00;;;;;;;2.93;1.60;;;12.40;99.90;;;;;;7386771;19;20593;-76
2022/12/26 11:45:29;;;;;;;2.80;1.37;;;12.50;99.90;;;;;;7389210;19;20134;-77
2022/12/26 11:47:58;;;;;;;1.70;1.13;;;12.60;99.90;;;;;;7385450;19;20155;-77
2022/12/26 11:50:27;;;;;;;2.23;1.50;;;12.40;99.90;;;;;;7386309;19;20204;-77
2022/12/26 11:52:56;;;;;;;1.70;1.17;;;12.20;99.90;;;;;;7387782;19;20139;-77
2022/12/26 11:55:25;;;;;;;1.73;1.20;;;12.00;99.90;;;;;;7388230;19;20183;-77
2022/12/26 11:58:07;;;;;;;1.73;1.00;;;12.00;99.90;;;;;;7395970;19;20271;-77
2022/12/26 12:00:34;;;;;;;1.43;1.23;;;12.20;99.90;;;;;;7396898;19;20127;-77
2022/12/26 12:03:03;;;;;;;1.17;1.03;;;12.40;99.90;;;;;;7394665;19;20149;-77
2022/12/26 12:05:41;;;;;;;2.40;1.10;;;12.30;99.90;;;;;;7395203;19;20519;-77
2022/12/26 12:08:35;;;;;;;1.63;0.90;;;12.30;99.90;;;;;;7392444;19;20681;-77
2022/12/26 12:11:33;;;;;;;1.58;0.93;;;12.40;99.90;;;;;;7395520;19;20528;-77
2022/12/26 12:14:25;;;;;;;2.17;1.00;;;12.30;99.90;;;;;;7395181;19;20209;-78
2022/12/26 12:17:02;;;;;;;1.40;1.00;;;12.40;99.90;;;;;;7393147;19;20154;-78
2022/12/26 12:19:41;;;;;;;1.83;1.10;;;12.60;99.90;;;;;;7393078;19;20154;-78
2022/12/26 12:22:43;;;;;;;1.53;1.20;;;12.60;99.90;;;;;;7395248;19;20633;-77
2022/12/26 12:25:27;;;;;;;1.40;0.93;;;12.60;99.90;;;;;;7391039;19;20138;-76
2022/12/26 12:28:13;;;;;;;2.17;1.00;;;12.60;99.90;;;;;;7392823;19;20147;-77
2022/12/26 12:31:01;;;;;;;1.50;0.80;;;12.60;99.90;;;;;;7393138;19;20160;-77
2022/12/26 12:33:46;;;;;;;1.55;1.00;;;12.60;99.90;;;;;;7394206;19;20126;-78
2022/12/26 12:36:58;;;;;;;2.60;0.80;;;12.60;99.90;;;;;;7394240;19;20138;-78
2022/12/26 12:40:00;;;;;;;0.70;0.70;;;12.50;99.90;;;;;;7385785;19;20142;-77
2022/12/26 12:42:45;;;;;;;0.80;0.80;;;12.50;99.90;;;;;;7394318;19;20586;-77
2022/12/26 12:45:37;;;;;;;0.60;0.60;;;12.60;99.90;;;;;;7392894;19;20138;-76
2022/12/26 12:48:27;;;;;;;1.00;0.80;;;12.60;99.90;;;;;;7392065;19;20150;-76
2022/12/26 12:51:12;;;;;;;0.83;0.83;;;12.50;99.90;;;;;;7393989;19;20262;-77
2022/12/26 12:54:01;;;;;;;1.15;1.05;;;12.40;99.90;;;;;;7392259;19;20154;-77
2022/12/26 12:56:56;;;;;;;1.02;0.77;;;12.50;99.90;;;;;;7393737;19;20158;-76
2022/12/26 13:00:03;;;;;;;2.23;0.80;;;12.50;99.90;;;;;;7391022;19;20159;-76
2022/12/26 13:02:38;;;;;;;2.55;0.80;;;12.50;99.90;;;;;;7393316;19;20508;-78
2022/12/26 13:05:17;;;;;;;0.80;0.70;;;12.50;99.90;;;;;;7392257;19;20175;-76
2022/12/26 13:07:50;;;;;;;1.35;0.98;;;12.60;99.90;;;;;;7389294;19;20266;-76
2022/12/26 13:10:26;;;;;;;0.90;0.60;;;12.50;99.90;;;;;;7389860;19;20146;-76
2022/12/26 13:12:53;;;;;;;0.60;0.60;;;12.60;99.90;;;;;;7388786;19;21606;-77
2022/12/26 13:15:41;;;;;;;1.08;0.80;;;12.50;99.90;;;;;;7392112;19;20146;-77
2022/12/26 13:18:10;;;;;;;1.03;0.80;;;12.40;99.90;;;;;;7390999;19;20574;-76
2022/12/26 13:20:39;;;;;;;0.73;0.70;;;12.30;99.90;;;;;;7393860;19;20602;-77
2022/12/26 13:26:29;;;;;;;2.23;0.70;;;12.40;99.90;;;;;;7388988;19;20142;-76
2022/12/26 13:29:05;;;;;;;0.57;0.57;;;12.60;99.90;;;;;;7390905;19;20135;-77
2022/12/26 13:31:35;;;;;;;0.87;0.60;;;12.70;99.90;;;;;;7392465;19;20138;-78
2022/12/26 13:34:03;;;;;;;0.68;0.60;;;12.50;99.90;;;;;;7390684;19;20161;-76
2022/12/26 13:36:41;;;;;;;2.33;0.67;;;12.60;99.90;;;;;;7393787;19;20198;-77
2022/12/26 13:39:22;;;;;;;0.50;0.50;;;12.60;99.90;;;;;;7391586;19;20155;-76
2022/12/26 13:44:49;;;;;;;1.10;0.63;;;12.60;99.90;;;;;;7391825;19;20147;-78
2022/12/26 13:47:32;;;;;;;0.70;0.70;;;12.70;99.90;;;;;;7389676;19;20218;-76
2022/12/26 13:50:18;;;;;;;1.23;0.70;;;12.40;99.90;;;;;;7390801;19;20138;-76
2022/12/26 13:52:45;;;;;;;1.17;0.70;;;12.40;99.90;;;;;;7391476;19;20142;-76
2022/12/26 13:55:11;;;;;;;0.60;0.60;;;12.60;99.90;;;;;;7387693;19;20139;-77
2022/12/26 13:57:40;;;;;;;0.73;0.60;;;12.60;99.90;;;;;;7390818;19;20773;-76
2022/12/26 14:00:09;;;;;;;0.70;0.63;;;12.50;99.90;;;;;;7391078;19;20147;-77
2022/12/26 14:02:50;;;;;;;1.27;0.70;;;12.40;99.90;;;;;;7390152;19;20126;-77
2022/12/26 14:05:46;;;;;;;1.30;0.67;;;12.30;99.90;;;;;;7388884;19;20205;-77
2022/12/26 14:08:33;;;;;;;2.20;1.13;;;12.40;99.90;;;;;;7387596;19;20146;-77
2022/12/26 14:11:19;;;;;;;0.95;0.85;;;12.50;99.90;;;;;;7391325;19;20219;-76
2022/12/26 14:14:21;;;;;;;0.80;0.70;;;12.50;99.90;;;;;;7391857;19;20134;-76
2022/12/26 14:17:07;;;;;;;1.10;0.63;;;12.50;99.90;;;;;;7390890;19;20142;-77
2022/12/26 14:19:56;;;;;;;1.10;0.90;;;12.40;99.90;;;;;;7389379;19;20141;-76
2022/12/26 14:22:33;;;;;;;1.52;0.95;;;12.50;99.90;;;;;;7391618;19;20142;-76
2022/12/26 14:25:46;;;;;;;1.05;0.85;;;12.60;99.90;;;;;;7390117;19;20145;-76
2022/12/26 14:28:48;;;;;;;1.65;0.90;;;12.50;99.90;;;;;;7387175;19;20151;-77
2022/12/26 14:31:51;;;;;;;1.20;0.90;;;12.60;99.90;;;;;;7392998;19;20158;-77
2022/12/26 14:34:45;;;;;;;1.10;1.00;;;12.50;99.90;;;;;;7389007;19;20157;-77
2022/12/26 14:37:19;;;;;;;1.30;0.80;;;12.30;99.90;;;;;;7388920;19;20138;-77
2022/12/26 14:39:53;;;;;;;2.33;0.93;;;12.50;99.90;;;;;;7390281;19;20494;-77
2022/12/26 14:45:35;;;;;;;1.33;0.90;;;12.50;99.90;;;;;;7387316;19;20179;-77
2022/12/26 14:48:15;;;;;;;1.30;0.90;;;12.40;99.90;;;;;;7384555;19;20577;-76
2022/12/26 14:50:43;;;;;;;1.23;0.90;;;12.50;99.90;;;;;;7390801;19;20146;-76
2022/12/26 14:53:27;;;;;;;0.80;0.80;;;12.50;99.90;;;;;;7387080;19;20155;-76
2022/12/26 14:56:09;;;;;;;0.70;0.70;;;12.30;99.90;;;;;;7391301;19;20138;-76
2022/12/26 14:58:44;;;;;;;1.00;0.80;;;12.30;99.90;;;;;;7389716;19;20141;-76
2022/12/26 15:01:14;;;;;;;1.93;1.10;;;12.30;99.90;;;;;;7392039;19;20548;-77
2022/12/26 15:03:58;;;;;;;1.63;1.20;;;12.40;99.90;;;;;;7389299;19;20629;-76
2022/12/26 15:07:01;;;;;;;1.63;1.20;;;12.40;99.90;;;;;;7390743;19;20598;-77
2022/12/26 15:09:48;;;;;;;1.30;1.00;;;12.50;99.90;;;;;;7387925;19;20141;-77
2022/12/26 15:13:03;;;;;;;1.45;1.02;;;12.30;99.90;;;;;;7389083;19;20157;-76
2022/12/26 15:15:38;;;;;;;1.27;1.05;;;12.30;99.90;;;;;;7391784;19;20157;-77
2022/12/26 15:18:19;;;;;;;1.57;1.00;;;12.40;99.90;;;;;;7394097;19;20141;-77
2022/12/26 15:21:07;;;;;;;1.17;0.77;;;12.40;99.90;;;;;;7386363;19;20152;-76
2022/12/26 15:24:18;;;;;;;0.90;0.70;;;12.40;99.90;;;;;;7389769;19;20138;-77
2022/12/26 15:26:52;;;;;;;1.23;0.80;;;12.40;99.90;;;;;;7389324;19;20257;-80
2022/12/26 15:29:18;;;;;;;1.00;0.70;;;12.40;99.90;;;;;;7391748;19;20236;-78
2022/12/26 15:32:02;;;;;;;1.58;0.80;;;12.30;99.90;;;;;;7393834;19;20134;-78
2022/12/26 15:34:49;;;;;;;1.42;1.20;;;12.20;99.90;;;;;;7386698;19;20594;-78
2022/12/26 15:37:49;;;;;;;1.53;1.00;;;12.30;99.90;;;;;;7395527;19;20135;-79